sensor_id;sensor_type;location;lat;lon;timestamp;pressure;altitude;pressure_sealevel;temperature;humidity
64115;BME280;62188;35.640;139.748;2024-02-23T00:00:58;102216.56;;;3.90;51.42
64115;BME280;62188;35.640;139.748;2024-02-23T00:03:25;102236.76;;;3.90;52.11
64115;BME280;62188;35.640;139.748;2024-02-23T00:05:53;102237.49;;;3.77;51.22
64115;BME280;62188;35.640;139.748;2024-02-23T00:08:16;102242.00;;;4.40;50.57
64115;BME280;62188;35.640;139.748;2024-02-23T00:10:42;102250.42;;;4.35;49.88
64115;BME280;62188;35.640;139.748;2024-02-23T00:13:07;102248.47;;;3.85;50.23
64115;BME280;62188;35.640;139.748;2024-02-23T00:15:34;102242.90;;;3.97;50.79
64115;BME280;62188;35.640;139.748;2024-02-23T00:17:59;102235.64;;;4.00;50.35
64115;BME280;62188;35.640;139.748;2024-02-23T00:20:24;102218.27;;;4.17;50.63
64115;BME280;62188;35.640;139.748;2024-02-23T00:22:50;102219.69;;;3.35;51.24
64115;BME280;62188;35.640;139.748;2024-02-23T00:25:18;102218.55;;;3.90;51.16
64115;BME280;62188;35.640;139.748;2024-02-23T00:27:42;102223.19;;;3.60;50.72
64115;BME280;62188;35.640;139.748;2024-02-23T00:30:09;102223.98;;;3.55;51.27
64115;BME280;62188;35.640;139.748;2024-02-23T00:32:35;102212.63;;;3.31;50.63
64115;BME280;62188;35.640;139.748;2024-02-23T00:35:00;102211.06;;;3.17;51.24
64115;BME280;62188;35.640;139.748;2024-02-23T00:37:27;102217.09;;;2.91;52.51
64115;BME280;62188;35.640;139.748;2024-02-23T00:39:51;102215.95;;;3.75;51.63
64115;BME280;62188;35.640;139.748;2024-02-23T00:42:17;102195.90;;;3.35;51.66
64115;BME280;62188;35.640;139.748;2024-02-23T00:44:42;102200.08;;;3.82;51.22
64115;BME280;62188;35.640;139.748;2024-02-23T00:47:08;102202.02;;;3.67;51.19
64115;BME280;62188;35.640;139.748;2024-02-23T00:49:34;102194.94;;;3.27;51.46
64115;BME280;62188;35.640;139.748;2024-02-23T00:52:00;102197.78;;;3.82;51.23
64115;BME280;62188;35.640;139.748;2024-02-23T00:54:25;102206.10;;;3.56;51.29
64115;BME280;62188;35.640;139.748;2024-02-23T00:56:51;102202.33;;;2.99;52.67
64115;BME280;62188;35.640;139.748;2024-02-23T00:59:17;102196.73;;;3.43;52.52
64115;BME280;62188;35.640;139.748;2024-02-23T01:01:43;102200.19;;;3.62;51.94
64115;BME280;62188;35.640;139.748;2024-02-23T01:04:10;102205.61;;;3.59;52.49
64115;BME280;62188;35.640;139.748;2024-02-23T01:06:36;102202.63;;;3.53;51.91
64115;BME280;62188;35.640;139.748;2024-02-23T01:09:00;102201.38;;;3.32;51.92
64115;BME280;62188;35.640;139.748;2024-02-23T01:11:26;102202.06;;;3.75;51.76
64115;BME280;62188;35.640;139.748;2024-02-23T01:13:52;102221.71;;;4.18;51.24
64115;BME280;62188;35.640;139.748;2024-02-23T01:16:17;102204.12;;;4.36;51.20
64115;BME280;62188;35.640;139.748;2024-02-23T01:18:45;102199.09;;;4.38;50.43
64115;BME280;62188;35.640;139.748;2024-02-23T01:21:09;102201.57;;;4.76;50.18
64115;BME280;62188;35.640;139.748;2024-02-23T01:23:36;102187.00;;;4.06;50.19
64115;BME280;62188;35.640;139.748;2024-02-23T01:26:00;102202.65;;;4.15;50.11
64115;BME280;62188;35.640;139.748;2024-02-23T01:28:27;102207.75;;;4.63;50.04
64115;BME280;62188;35.640;139.748;2024-02-23T01:30:54;102188.31;;;4.80;49.67
64115;BME280;62188;35.640;139.748;2024-02-23T01:33:18;102187.36;;;4.51;49.84
64115;BME280;62188;35.640;139.748;2024-02-23T01:35:45;102188.18;;;4.87;49.26
64115;BME280;62188;35.640;139.748;2024-02-23T01:38:09;102194.21;;;4.58;50.61
64115;BME280;62188;35.640;139.748;2024-02-23T01:40:35;102188.73;;;4.64;50.24
64115;BME280;62188;35.640;139.748;2024-02-23T01:43:04;102183.73;;;4.73;50.09
64115;BME280;62188;35.640;139.748;2024-02-23T01:45:27;102181.87;;;4.82;49.88
64115;BME280;62188;35.640;139.748;2024-02-23T01:47:53;102171.61;;;5.04;49.49
64115;BME280;62188;35.640;139.748;2024-02-23T01:50:20;102169.06;;;5.16;49.20
64115;BME280;62188;35.640;139.748;2024-02-23T01:52:43;102178.05;;;5.09;49.19
64115;BME280;62188;35.640;139.748;2024-02-23T01:55:10;102184.86;;;5.37;49.19
64115;BME280;62188;35.640;139.748;2024-02-23T01:57:37;102178.33;;;5.55;48.58
64115;BME280;62188;35.640;139.748;2024-02-23T02:00:02;102169.89;;;5.60;48.22
64115;BME280;62188;35.640;139.748;2024-02-23T02:02:27;102159.79;;;5.17;48.19
64115;BME280;62188;35.640;139.748;2024-02-23T02:04:52;102160.39;;;5.24;48.48
64115;BME280;62188;35.640;139.748;2024-02-23T02:07:18;102158.97;;;5.42;48.74
64115;BME280;62188;35.640;139.748;2024-02-23T02:09:45;102166.37;;;5.21;48.71
64115;BME280;62188;35.640;139.748;2024-02-23T02:12:11;102158.16;;;5.20;48.79
64115;BME280;62188;35.640;139.748;2024-02-23T02:14:35;102148.86;;;5.08;49.45
64115;BME280;62188;35.640;139.748;2024-02-23T02:17:01;102144.52;;;5.47;49.00
64115;BME280;62188;35.640;139.748;2024-02-23T02:19:29;102131.89;;;5.56;48.38
64115;BME280;62188;35.640;139.748;2024-02-23T02:21:53;102132.24;;;5.23;48.79
64115;BME280;62188;35.640;139.748;2024-02-23T02:24:19;102131.26;;;5.27;48.40
64115;BME280;62188;35.640;139.748;2024-02-23T02:26:46;102120.24;;;5.41;48.20
64115;BME280;62188;35.640;139.748;2024-02-23T02:29:10;102119.49;;;5.67;48.67
64115;BME280;62188;35.640;139.748;2024-02-23T02:31:36;102113.81;;;5.88;48.70
64115;BME280;62188;35.640;139.748;2024-02-23T02:34:03;102109.78;;;5.92;47.03
64115;BME280;62188;35.640;139.748;2024-02-23T02:36:28;102109.30;;;6.00;47.60
64115;BME280;62188;35.640;139.748;2024-02-23T02:38:53;102102.72;;;5.49;47.81
64115;BME280;62188;35.640;139.748;2024-02-23T02:41:21;102109.09;;;5.59;47.76
64115;BME280;62188;35.640;139.748;2024-02-23T02:43:44;102116.69;;;5.96;47.80
64115;BME280;62188;35.640;139.748;2024-02-23T02:46:12;102112.66;;;6.11;48.01
64115;BME280;62188;35.640;139.748;2024-02-23T02:48:36;102104.94;;;6.00;47.59
64115;BME280;62188;35.640;139.748;2024-02-23T02:51:03;102089.29;;;6.01;46.93
64115;BME280;62188;35.640;139.748;2024-02-23T02:53:29;102074.99;;;5.30;47.46
64115;BME280;62188;35.640;139.748;2024-02-23T02:55:53;102083.65;;;5.49;47.98
64115;BME280;62188;35.640;139.748;2024-02-23T02:58:19;102096.83;;;5.69;47.69
64115;BME280;62188;35.640;139.748;2024-02-23T03:00:44;102098.46;;;5.34;46.67
64115;BME280;62188;35.640;139.748;2024-02-23T03:03:10;102090.92;;;5.33;47.04
64115;BME280;62188;35.640;139.748;2024-02-23T03:05:36;102087.09;;;5.86;47.18
64115;BME280;62188;35.640;139.748;2024-02-23T03:08:03;102079.34;;;5.55;47.51
64115;BME280;62188;35.640;139.748;2024-02-23T03:10:27;102078.02;;;5.72;47.29
64115;BME280;62188;35.640;139.748;2024-02-23T03:12:53;102076.45;;;5.80;47.36
64115;BME280;62188;35.640;139.748;2024-02-23T03:15:18;102078.49;;;5.66;46.93
64115;BME280;62188;35.640;139.748;2024-02-23T03:17:44;102078.32;;;5.89;47.35
64115;BME280;62188;35.640;139.748;2024-02-23T03:20:10;102069.12;;;6.12;47.41
64115;BME280;62188;35.640;139.748;2024-02-23T03:22:35;102056.58;;;5.78;47.81
64115;BME280;62188;35.640;139.748;2024-02-23T03:25:01;102047.27;;;5.83;47.02
64115;BME280;62188;35.640;139.748;2024-02-23T03:27:29;102044.08;;;5.72;46.66
64115;BME280;62188;35.640;139.748;2024-02-23T03:29:54;102043.02;;;6.09;46.34
64115;BME280;62188;35.640;139.748;2024-02-23T03:32:19;102046.75;;;6.29;46.73
64115;BME280;62188;35.640;139.748;2024-02-23T03:34:46;102046.60;;;6.05;47.78
64115;BME280;62188;35.640;139.748;2024-02-23T03:37:09;102047.85;;;5.58;47.25
64115;BME280;62188;35.640;139.748;2024-02-23T03:39:35;102048.63;;;5.59;46.97
64115;BME280;62188;35.640;139.748;2024-02-23T03:42:01;102042.25;;;6.17;47.55
64115;BME280;62188;35.640;139.748;2024-02-23T03:44:27;102034.63;;;5.95;47.96
64115;BME280;62188;35.640;139.748;2024-02-23T03:46:54;102028.58;;;5.54;47.45
64115;BME280;62188;35.640;139.748;2024-02-23T03:49:18;102022.77;;;6.06;47.76
64115;BME280;62188;35.640;139.748;2024-02-23T03:51:43;102026.43;;;5.77;46.74
64115;BME280;62188;35.640;139.748;2024-02-23T03:54:10;102019.37;;;5.80;46.33
64115;BME280;62188;35.640;139.748;2024-02-23T03:56:40;102020.20;;;5.49;46.79
64115;BME280;62188;35.640;139.748;2024-02-23T03:59:01;102012.08;;;5.60;47.39
64115;BME280;62188;35.640;139.748;2024-02-23T04:01:27;102012.00;;;5.08;47.33
64115;BME280;62188;35.640;139.748;2024-02-23T04:03:53;102011.86;;;5.53;47.50
64115;BME280;62188;35.640;139.748;2024-02-23T04:06:18;102016.30;;;5.58;47.33
64115;BME280;62188;35.640;139.748;2024-02-23T04:08:44;102013.95;;;5.76;47.09
64115;BME280;62188;35.640;139.748;2024-02-23T04:11:12;102015.32;;;5.83;47.51
64115;BME280;62188;35.640;139.748;2024-02-23T04:13:35;102019.34;;;5.88;46.95
64115;BME280;62188;35.640;139.748;2024-02-23T04:16:02;102016.35;;;6.13;47.13
64115;BME280;62188;35.640;139.748;2024-02-23T04:18:27;102013.57;;;5.88;46.70
64115;BME280;62188;35.640;139.748;2024-02-23T04:20:53;102011.98;;;5.67;46.48
64115;BME280;62188;35.640;139.748;2024-02-23T04:23:19;102005.01;;;5.57;47.47
64115;BME280;62188;35.640;139.748;2024-02-23T04:25:44;102005.97;;;5.20;46.99
64115;BME280;62188;35.640;139.748;2024-02-23T04:28:10;102002.90;;;5.95;47.20
64115;BME280;62188;35.640;139.748;2024-02-23T04:30:35;102000.00;;;5.68;47.04
64115;BME280;62188;35.640;139.748;2024-02-23T04:33:03;101995.68;;;5.51;47.42
64115;BME280;62188;35.640;139.748;2024-02-23T04:35:27;101991.60;;;5.72;47.67
64115;BME280;62188;35.640;139.748;2024-02-23T04:37:54;101991.14;;;5.81;47.78
64115;BME280;62188;35.640;139.748;2024-02-23T04:40:21;101999.46;;;5.58;47.16
64115;BME280;62188;35.640;139.748;2024-02-23T04:42:45;102001.01;;;5.59;47.49
64115;BME280;62188;35.640;139.748;2024-02-23T04:45:11;102001.21;;;5.73;47.56
64115;BME280;62188;35.640;139.748;2024-02-23T04:47:35;101997.45;;;5.69;47.54
64115;BME280;62188;35.640;139.748;2024-02-23T04:50:01;102000.37;;;5.95;47.39
64115;BME280;62188;35.640;139.748;2024-02-23T04:52:27;101998.99;;;5.37;47.65
64115;BME280;62188;35.640;139.748;2024-02-23T04:54:54;101993.47;;;5.49;47.95
64115;BME280;62188;35.640;139.748;2024-02-23T04:57:20;101994.52;;;5.73;48.00
64115;BME280;62188;35.640;139.748;2024-02-23T04:59:45;102004.97;;;5.65;47.65
64115;BME280;62188;35.640;139.748;2024-02-23T05:02:10;102004.78;;;5.84;47.78
64115;BME280;62188;35.640;139.748;2024-02-23T05:04:36;101999.78;;;5.63;48.18
64115;BME280;62188;35.640;139.748;2024-02-23T05:07:01;102009.47;;;5.15;47.74
64115;BME280;62188;35.640;139.748;2024-02-23T05:09:27;102014.33;;;5.25;47.88
64115;BME280;62188;35.640;139.748;2024-02-23T05:11:53;102012.31;;;5.26;48.15
64115;BME280;62188;35.640;139.748;2024-02-23T05:14:19;102012.31;;;4.94;49.09
64115;BME280;62188;35.640;139.748;2024-02-23T05:16:47;102018.65;;;5.04;48.53
64115;BME280;62188;35.640;139.748;2024-02-23T05:19:10;102027.38;;;5.09;48.38
64115;BME280;62188;35.640;139.748;2024-02-23T05:21:36;102024.77;;;5.34;47.98
64115;BME280;62188;35.640;139.748;2024-02-23T05:24:02;102016.71;;;5.27;48.19
64115;BME280;62188;35.640;139.748;2024-02-23T05:26:27;102019.06;;;5.07;50.75
64115;BME280;62188;35.640;139.748;2024-02-23T05:28:53;102020.68;;;4.19;52.30
64115;BME280;62188;35.640;139.748;2024-02-23T05:31:19;102018.33;;;4.95;55.68
64115;BME280;62188;35.640;139.748;2024-02-23T05:33:44;102009.85;;;5.21;54.00
64115;BME280;62188;35.640;139.748;2024-02-23T05:36:12;102014.64;;;5.06;55.64
64115;BME280;62188;35.640;139.748;2024-02-23T05:38:36;102019.65;;;5.48;53.12
64115;BME280;62188;35.640;139.748;2024-02-23T05:41:02;102016.09;;;4.93;51.68
64115;BME280;62188;35.640;139.748;2024-02-23T05:43:29;102017.50;;;4.48;51.74
64115;BME280;62188;35.640;139.748;2024-02-23T05:45:53;102019.59;;;5.08;50.51
64115;BME280;62188;35.640;139.748;2024-02-23T05:48:19;102023.89;;;5.21;51.03
64115;BME280;62188;35.640;139.748;2024-02-23T05:50:45;102027.06;;;5.29;50.52
64115;BME280;62188;35.640;139.748;2024-02-23T05:53:12;102026.30;;;5.46;50.29
64115;BME280;62188;35.640;139.748;2024-02-23T05:55:36;102021.83;;;5.31;50.27
64115;BME280;62188;35.640;139.748;2024-02-23T05:58:02;102031.67;;;5.55;49.24
64115;BME280;62188;35.640;139.748;2024-02-23T06:00:28;102026.67;;;5.73;48.53
64115;BME280;62188;35.640;139.748;2024-02-23T06:02:53;102032.02;;;5.64;48.49
64115;BME280;62188;35.640;139.748;2024-02-23T06:05:21;102035.43;;;5.71;48.14
64115;BME280;62188;35.640;139.748;2024-02-23T06:07:45;102034.66;;;5.65;48.72
64115;BME280;62188;35.640;139.748;2024-02-23T06:10:11;102029.56;;;5.69;49.94
64115;BME280;62188;35.640;139.748;2024-02-23T06:12:36;102025.59;;;5.20;49.61
64115;BME280;62188;35.640;139.748;2024-02-23T06:15:04;102030.51;;;5.32;49.60
64115;BME280;62188;35.640;139.748;2024-02-23T06:17:28;102031.97;;;5.58;49.04
64115;BME280;62188;35.640;139.748;2024-02-23T06:19:53;102027.71;;;5.37;49.26
64115;BME280;62188;35.640;139.748;2024-02-23T06:22:21;102014.96;;;4.87;49.59
64115;BME280;62188;35.640;139.748;2024-02-23T06:24:45;102014.91;;;5.20;49.18
64115;BME280;62188;35.640;139.748;2024-02-23T06:27:11;102012.20;;;4.86;49.63
64115;BME280;62188;35.640;139.748;2024-02-23T06:29:37;102023.21;;;5.16;50.10
64115;BME280;62188;35.640;139.748;2024-02-23T06:32:02;102025.11;;;5.39;50.24
64115;BME280;62188;35.640;139.748;2024-02-23T06:34:28;102026.67;;;5.40;49.78
64115;BME280;62188;35.640;139.748;2024-02-23T06:36:54;102028.93;;;5.78;49.52
64115;BME280;62188;35.640;139.748;2024-02-23T06:39:20;102019.99;;;5.73;49.09
64115;BME280;62188;35.640;139.748;2024-02-23T06:41:45;102023.05;;;5.57;49.07
64115;BME280;62188;35.640;139.748;2024-02-23T06:44:11;102022.91;;;5.78;48.83
64115;BME280;62188;35.640;139.748;2024-02-23T06:46:37;102022.83;;;5.89;48.41
64115;BME280;62188;35.640;139.748;2024-02-23T06:49:02;102025.73;;;5.76;48.64
64115;BME280;62188;35.640;139.748;2024-02-23T06:51:29;102036.16;;;5.88;49.30
64115;BME280;62188;35.640;139.748;2024-02-23T06:53:54;102039.51;;;5.77;48.84
64115;BME280;62188;35.640;139.748;2024-02-23T06:56:20;102033.05;;;5.87;48.63
64115;BME280;62188;35.640;139.748;2024-02-23T06:58:46;102035.31;;;5.45;48.16
64115;BME280;62188;35.640;139.748;2024-02-23T07:01:11;102036.95;;;5.66;48.48
64115;BME280;62188;35.640;139.748;2024-02-23T07:03:37;102035.39;;;5.46;48.30
64115;BME280;62188;35.640;139.748;2024-02-23T07:06:03;102035.65;;;5.61;48.74
64115;BME280;62188;35.640;139.748;2024-02-23T07:08:28;102039.57;;;5.59;48.41
64115;BME280;62188;35.640;139.748;2024-02-23T07:10:55;102045.58;;;5.59;49.29
64115;BME280;62188;35.640;139.748;2024-02-23T07:13:21;102048.63;;;5.54;49.07
64115;BME280;62188;35.640;139.748;2024-02-23T07:15:46;102051.05;;;5.90;48.50
64115;BME280;62188;35.640;139.748;2024-02-23T07:18:12;102055.23;;;5.83;48.12
64115;BME280;62188;35.640;139.748;2024-02-23T07:20:38;102056.80;;;5.79;47.95
64115;BME280;62188;35.640;139.748;2024-02-23T07:23:03;102059.37;;;5.44;48.12
64115;BME280;62188;35.640;139.748;2024-02-23T07:25:30;102062.40;;;5.25;48.47
64115;BME280;62188;35.640;139.748;2024-02-23T07:27:57;102062.12;;;5.68;47.99
64115;BME280;62188;35.640;139.748;2024-02-23T07:30:22;102059.19;;;5.17;47.97
64115;BME280;62188;35.640;139.748;2024-02-23T07:32:49;102068.81;;;4.80;48.36
64115;BME280;62188;35.640;139.748;2024-02-23T07:35:11;102077.54;;;4.75;48.25
64115;BME280;62188;35.640;139.748;2024-02-23T07:37:38;102075.09;;;4.26;49.21
64115;BME280;62188;35.640;139.748;2024-02-23T07:40:03;102071.31;;;4.12;50.09
64115;BME280;62188;35.640;139.748;2024-02-23T07:42:28;102077.23;;;4.23;49.49
64115;BME280;62188;35.640;139.748;2024-02-23T07:44:55;102078.69;;;4.87;49.10
64115;BME280;62188;35.640;139.748;2024-02-23T07:47:23;102083.74;;;4.84;49.79
64115;BME280;62188;35.640;139.748;2024-02-23T07:49:47;102080.21;;;4.31;49.92
64115;BME280;62188;35.640;139.748;2024-02-23T07:52:11;102089.09;;;4.38;49.92
64115;BME280;62188;35.640;139.748;2024-02-23T07:54:37;102092.70;;;4.30;50.01
64115;BME280;62188;35.640;139.748;2024-02-23T07:57:04;102089.56;;;4.21;50.71
64115;BME280;62188;35.640;139.748;2024-02-23T07:59:28;102093.38;;;4.40;49.94
64115;BME280;62188;35.640;139.748;2024-02-23T08:01:54;102101.16;;;4.51;50.29
64115;BME280;62188;35.640;139.748;2024-02-23T08:04:19;102108.77;;;4.86;50.21
64115;BME280;62188;35.640;139.748;2024-02-23T08:06:45;102109.95;;;5.06;50.60
64115;BME280;62188;35.640;139.748;2024-02-23T08:09:11;102113.11;;;4.99;50.79
64115;BME280;62188;35.640;139.748;2024-02-23T08:11:36;102113.56;;;5.25;50.24
64115;BME280;62188;35.640;139.748;2024-02-23T08:14:07;102115.95;;;5.43;50.08
64115;BME280;62188;35.640;139.748;2024-02-23T08:16:27;102122.20;;;5.33;49.49
64115;BME280;62188;35.640;139.748;2024-02-23T08:18:54;102121.37;;;5.07;48.77
64115;BME280;62188;35.640;139.748;2024-02-23T08:21:19;102125.15;;;5.24;48.73
64115;BME280;62188;35.640;139.748;2024-02-23T08:23:45;102130.45;;;5.15;49.12
64115;BME280;62188;35.640;139.748;2024-02-23T08:26:10;102128.60;;;5.32;48.53
64115;BME280;62188;35.640;139.748;2024-02-23T08:28:36;102124.93;;;5.11;49.26
64115;BME280;62188;35.640;139.748;2024-02-23T08:31:01;102134.71;;;4.68;49.86
64115;BME280;62188;35.640;139.748;2024-02-23T08:33:27;102140.50;;;4.83;49.79
64115;BME280;62188;35.640;139.748;2024-02-23T08:35:55;102141.11;;;4.64;50.30
64115;BME280;62188;35.640;139.748;2024-02-23T08:38:18;102144.68;;;4.92;49.91
64115;BME280;62188;35.640;139.748;2024-02-23T08:40:44;102145.50;;;4.88;49.77
64115;BME280;62188;35.640;139.748;2024-02-23T08:43:11;102151.77;;;4.79;50.51
64115;BME280;62188;35.640;139.748;2024-02-23T08:45:35;102158.63;;;4.55;49.90
64115;BME280;62188;35.640;139.748;2024-02-23T08:48:01;102163.99;;;4.68;49.77
64115;BME280;62188;35.640;139.748;2024-02-23T08:50:27;102170.83;;;5.31;49.39
64115;BME280;62188;35.640;139.748;2024-02-23T08:52:53;102170.94;;;5.03;49.44
64115;BME280;62188;35.640;139.748;2024-02-23T08:55:19;102174.89;;;5.05;49.77
64115;BME280;62188;35.640;139.748;2024-02-23T08:57:44;102178.81;;;5.08;49.41
64115;BME280;62188;35.640;139.748;2024-02-23T09:00:13;102178.61;;;4.61;50.32
64115;BME280;62188;35.640;139.748;2024-02-23T09:02:38;102184.39;;;4.49;50.24
64115;BME280;62188;35.640;139.748;2024-02-23T09:05:01;102181.66;;;4.69;50.52
64115;BME280;62188;35.640;139.748;2024-02-23T09:07:27;102185.85;;;4.90;50.58
64115;BME280;62188;35.640;139.748;2024-02-23T09:09:52;102190.93;;;4.24;51.16
64115;BME280;62188;35.640;139.748;2024-02-23T09:12:19;102193.64;;;4.33;51.33
64115;BME280;62188;35.640;139.748;2024-02-23T09:14:46;102191.22;;;4.24;51.06
64115;BME280;62188;35.640;139.748;2024-02-23T09:17:10;102201.31;;;4.64;50.86
64115;BME280;62188;35.640;139.748;2024-02-23T09:19:35;102206.06;;;4.46;50.86
64115;BME280;62188;35.640;139.748;2024-02-23T09:22:01;102210.15;;;4.66;50.74
64115;BME280;62188;35.640;139.748;2024-02-23T09:24:28;102208.84;;;4.33;50.45
64115;BME280;62188;35.640;139.748;2024-02-23T09:26:53;102215.93;;;4.68;50.21
64115;BME280;62188;35.640;139.748;2024-02-23T09:29:18;102212.03;;;4.43;49.87
64115;BME280;62188;35.640;139.748;2024-02-23T09:31:44;102217.24;;;4.61;49.73
64115;BME280;62188;35.640;139.748;2024-02-23T09:34:11;102216.80;;;4.50;49.91
64115;BME280;62188;35.640;139.748;2024-02-23T09:36:35;102219.87;;;4.63;49.96
64115;BME280;62188;35.640;139.748;2024-02-23T09:39:01;102220.91;;;4.14;50.59
64115;BME280;62188;35.640;139.748;2024-02-23T09:41:27;102220.93;;;4.13;51.21
64115;BME280;62188;35.640;139.748;2024-02-23T09:43:54;102228.60;;;4.33;51.64
64115;BME280;62188;35.640;139.748;2024-02-23T09:46:19;102228.02;;;4.66;51.28
64115;BME280;62188;35.640;139.748;2024-02-23T09:48:47;102228.72;;;4.53;50.19
64115;BME280;62188;35.640;139.748;2024-02-23T09:51:12;102227.63;;;4.49;50.41
64115;BME280;62188;35.640;139.748;2024-02-23T09:53:38;102229.04;;;4.64;50.41
64115;BME280;62188;35.640;139.748;2024-02-23T09:56:02;102232.11;;;4.04;50.73
64115;BME280;62188;35.640;139.748;2024-02-23T09:58:28;102235.58;;;4.33;50.70
64115;BME280;62188;35.640;139.748;2024-02-23T10:00:53;102234.64;;;4.45;50.77
64115;BME280;62188;35.640;139.748;2024-02-23T10:03:18;102235.22;;;4.54;49.79
64115;BME280;62188;35.640;139.748;2024-02-23T10:05:44;102237.33;;;4.29;50.40
64115;BME280;62188;35.640;139.748;2024-02-23T10:08:12;102230.32;;;3.87;50.36
64115;BME280;62188;35.640;139.748;2024-02-23T10:10:36;102230.42;;;4.18;50.37
64115;BME280;62188;35.640;139.748;2024-02-23T10:13:01;102233.86;;;3.79;50.75
64115;BME280;62188;35.640;139.748;2024-02-23T10:15:31;102236.46;;;4.15;50.51
64115;BME280;62188;35.640;139.748;2024-02-23T10:17:53;102235.78;;;3.03;52.01
64115;BME280;62188;35.640;139.748;2024-02-23T10:20:19;102242.96;;;2.73;52.56
64115;BME280;62188;35.640;139.748;2024-02-23T10:22:46;102235.53;;;3.07;52.09
64115;BME280;62188;35.640;139.748;2024-02-23T10:25:10;102237.94;;;3.60;52.01
64115;BME280;62188;35.640;139.748;2024-02-23T10:27:36;102235.77;;;3.97;51.58
64115;BME280;62188;35.640;139.748;2024-02-23T10:30:02;102236.77;;;3.35;51.25
64115;BME280;62188;35.640;139.748;2024-02-23T10:32:30;102238.25;;;3.95;51.80
64115;BME280;62188;35.640;139.748;2024-02-23T10:34:54;102235.23;;;4.42;52.26
64115;BME280;62188;35.640;139.748;2024-02-23T10:37:18;102239.28;;;4.39;53.32
64115;BME280;62188;35.640;139.748;2024-02-23T10:39:45;102241.40;;;4.61;53.23
64115;BME280;62188;35.640;139.748;2024-02-23T10:42:10;102244.17;;;4.82;54.23
64115;BME280;62188;35.640;139.748;2024-02-23T10:44:36;102247.14;;;5.05;52.52
64115;BME280;62188;35.640;139.748;2024-02-23T10:47:01;102253.13;;;4.77;52.08
64115;BME280;62188;35.640;139.748;2024-02-23T10:49:27;102256.81;;;5.12;51.13
64115;BME280;62188;35.640;139.748;2024-02-23T10:51:52;102250.08;;;5.16;49.14
64115;BME280;62188;35.640;139.748;2024-02-23T10:54:19;102257.38;;;5.31;48.60
64115;BME280;62188;35.640;139.748;2024-02-23T10:56:46;102259.29;;;4.81;48.62
64115;BME280;62188;35.640;139.748;2024-02-23T10:59:10;102266.93;;;4.60;48.79
64115;BME280;62188;35.640;139.748;2024-02-23T11:01:36;102263.72;;;4.57;48.74
64115;BME280;62188;35.640;139.748;2024-02-23T11:04:01;102265.95;;;4.72;48.85
64115;BME280;62188;35.640;139.748;2024-02-23T11:06:32;102268.64;;;4.96;48.14
64115;BME280;62188;35.640;139.748;2024-02-23T11:08:52;102264.13;;;4.79;47.58
64115;BME280;62188;35.640;139.748;2024-02-23T11:11:19;102270.43;;;4.46;47.01
64115;BME280;62188;35.640;139.748;2024-02-23T11:13:47;102270.35;;;4.70;47.33
64115;BME280;62188;35.640;139.748;2024-02-23T11:16:12;102270.99;;;4.17;47.68
64115;BME280;62188;35.640;139.748;2024-02-23T11:18:39;102274.37;;;4.36;48.26
64115;BME280;62188;35.640;139.748;2024-02-23T11:21:02;102274.42;;;4.52;47.78
64115;BME280;62188;35.640;139.748;2024-02-23T11:23:27;102269.93;;;4.43;48.45
64115;BME280;62188;35.640;139.748;2024-02-23T11:26:07;102271.16;;;4.61;47.35
64115;BME280;62188;35.640;139.748;2024-02-23T11:28:23;102267.92;;;4.48;47.92
64115;BME280;62188;35.640;139.748;2024-02-23T11:30:46;102263.90;;;4.69;47.43
64115;BME280;62188;35.640;139.748;2024-02-23T11:33:11;102262.21;;;4.65;46.66
64115;BME280;62188;35.640;139.748;2024-02-23T11:35:36;102264.76;;;4.72;46.22
64115;BME280;62188;35.640;139.748;2024-02-23T11:38:04;102260.05;;;4.78;46.40
64115;BME280;62188;35.640;139.748;2024-02-23T11:40:28;102266.71;;;5.18;46.20
64115;BME280;62188;35.640;139.748;2024-02-23T11:42:55;102264.84;;;5.29;46.18
64115;BME280;62188;35.640;139.748;2024-02-23T11:45:19;102264.18;;;5.20;45.37
64115;BME280;62188;35.640;139.748;2024-02-23T11:47:44;102269.48;;;5.22;45.94
64115;BME280;62188;35.640;139.748;2024-02-23T11:50:11;102265.74;;;4.64;45.80
64115;BME280;62188;35.640;139.748;2024-02-23T11:52:38;102264.12;;;4.55;46.20
64115;BME280;62188;35.640;139.748;2024-02-23T11:55:03;102264.40;;;5.03;46.89
64115;BME280;62188;35.640;139.748;2024-02-23T11:57:27;102266.41;;;4.74;46.10
64115;BME280;62188;35.640;139.748;2024-02-23T11:59:53;102270.72;;;4.87;45.39
64115;BME280;62188;35.640;139.748;2024-02-23T12:02:20;102266.96;;;4.91;45.54
64115;BME280;62188;35.640;139.748;2024-02-23T12:04:46;102265.31;;;5.07;46.09
64115;BME280;62188;35.640;139.748;2024-02-23T12:07:12;102269.29;;;4.75;44.85
64115;BME280;62188;35.640;139.748;2024-02-23T12:09:36;102272.58;;;4.75;44.88
64115;BME280;62188;35.640;139.748;2024-02-23T12:12:02;102270.18;;;5.20;44.79
64115;BME280;62188;35.640;139.748;2024-02-23T12:14:27;102270.74;;;5.20;44.66
64115;BME280;62188;35.640;139.748;2024-02-23T12:16:55;102269.72;;;4.64;44.67
64115;BME280;62188;35.640;139.748;2024-02-23T12:19:20;102269.42;;;5.02;44.00
64115;BME280;62188;35.640;139.748;2024-02-23T12:21:47;102266.31;;;4.99;44.14
64115;BME280;62188;35.640;139.748;2024-02-23T12:24:10;102261.15;;;5.18;44.00
64115;BME280;62188;35.640;139.748;2024-02-23T12:26:36;102261.94;;;4.65;43.85
64115;BME280;62188;35.640;139.748;2024-02-23T12:29:02;102260.68;;;4.27;43.62
64115;BME280;62188;35.640;139.748;2024-02-23T12:31:30;102258.18;;;4.43;43.66